Schnellsuche:     vonnach     am:               Ankunft heute   Abflug heute   
Wetterdaten des Sylter Flughafens. Alle Angaben sind ohne Gewähr.



Datum: 2018-04-21 22:50 UTC
   
Windrichtung: 300°
Windgeschwindigkeit: 3 - 5 Kt.
QNH: 1020 hPa
Temperatur: 4 °C
Taupunkt: 4 °C
rel. Luftfeuchte: 100 %

METAR EDXW 211650Z 31006KT CAVOK 09/07 Q1021 RMK ATIS BRA=

Wolkenhöhen in den letzten 48 Stunden:






 

Im Jettempo nach Sylt!



Rhein-Neckar-Air

Mannheim
Die Rhein-Neckar-Air fliegt vom 28. April bis zum 26. Oktober 2018 nach Mannheim. Zur Seite der Rhein-Neckar-Air: www.flyRNA.de

Lufthansa

Zürich, München und Frankfurt/Main
Die Lufthansa fliegt vom 21. April bis zum 26. Oktober 2019 nach Zürich, vom 21. April bis zum 26. Oktober 2019 nach München und vom 22. April bis zum 12. Oktober 2019 nach Frankfurt/Main. Zur Seite der Lufthansa: www.lufthansa.de

Syltair

Hamburg
Die Syltair fliegt vom 29. März bis zum 04. Oktober 2018 nach Hamburg. Zur Seite der Syltair: www.syltair.de